Terminal Aerodrome Forecast
Issued by NWS Paducah, KY

Home | Current Version | Previous Version | Text Only | Print | Product List | Glossary On
Versions: 1 2 3 4 5 6 7 8 9 10 11 12 13 14 15 16 17 18
000
FTUS43 KPAH 032337
TAFEVV
TAF
KEVV 032337Z 0400/0424 34005KT 5SM HZ VCTS SCT030CB
     FM040100 35003KT 6SM HZ FEW035 SCT100
     FM040800 00000KT 4SM BR BKN010
     FM041500 01004KT P6SM SCT035=

USA.gov is the U.S. government's official web portal to all federal, state and local government web resources and services.